Time;durP1;ratioP1;P1;durP2;ratioP2;P2;SDS_P1;SDS_P2;PMS_P1;PMS_P2;Temp;Humidity;BMP_temperature;BMP_pressure;BME280_temperature;BME280_humidity;BME280_pressure;Samples;Min_cycle;Max_cycle;Signal;HPM_P1;HPM_P2
2023/03/11 00:00:47;;;;;;;27.40;24.60;;;;;;;7.82;81.27;95313.03;106641;1286;22563;-89
2023/03/11 00:03:27;;;;;;;27.20;24.30;;;;;;;7.85;81.03;95312.05;108119;1289;22555;-88
2023/03/11 00:05:57;;;;;;;27.70;23.20;;;;;;;7.91;80.97;95311.73;106340;1289;23164;-85
2023/03/11 00:08:25;;;;;;;22.00;19.70;;;;;;;7.94;81.11;95312.65;106700;1289;23914;-90
2023/03/11 00:10:55;;;;;;;25.70;23.10;;;;;;;8.00;81.46;95310.29;107827;1289;22259;-83
2023/03/11 00:13:23;;;;;;;33.50;30.30;;;;;;;8.02;81.14;95305.64;109737;1289;22534;-87
2023/03/11 00:15:59;;;;;;;36.40;33.00;;;;;;;8.03;80.73;95303.52;109816;1289;22233;-88
2023/03/11 00:18:30;;;;;;;35.30;32.00;;;;;;;8.01;80.51;95304.48;109769;1289;22892;-87
2023/03/11 00:20:59;;;;;;;25.60;23.20;;;;;;;8.03;80.35;95297.40;109421;1289;22579;-88
2023/03/11 00:23:28;;;;;;;24.80;22.30;;;;;;;8.06;80.47;95295.48;106833;1289;22548;-91
2023/03/11 00:25:58;;;;;;;29.70;27.10;;;;;;;8.11;80.59;95295.36;106796;1289;22541;-88
2023/03/11 00:28:26;;;;;;;29.00;26.20;;;;;;;8.14;80.23;95293.31;106691;1289;22655;-89
2023/03/11 00:30:54;;;;;;;29.70;27.10;;;;;;;8.14;80.09;95295.22;106609;1289;25438;-86
2023/03/11 00:33:22;;;;;;;25.90;23.60;;;;;;;8.13;79.80;95298.88;106569;1289;22614;-90
2023/03/11 00:35:50;;;;;;;20.00;17.30;;;;;;;8.15;79.53;95295.25;107180;1289;22552;-88
2023/03/11 00:38:20;;;;;;;20.60;18.50;;;;;;;8.16;79.53;95298.27;107653;1289;23391;-88
2023/03/11 00:40:48;;;;;;;18.40;16.50;;;;;;;8.21;79.58;95298.84;107687;1272;24249;-91
2023/03/11 00:43:17;;;;;;;27.30;24.90;;;;;;;8.24;79.57;95295.21;106269;1289;22644;-88
2023/03/11 00:45:50;;;;;;;19.10;17.30;;;;;;;8.25;79.56;95290.95;107734;1271;22232;31
2023/03/11 00:51:53;;;;;;;14.70;13.10;;;;;;;8.24;78.55;95284.02;109867;1267;23314;31
2023/03/11 00:55:02;;;;;;;13.10;11.80;;;;;;;8.25;79.06;95282.83;109758;1270;23706;31
2023/03/11 00:57:35;;;;;;;13.20;11.70;;;;;;;8.30;78.97;95282.40;106923;1260;23588;-81
2023/03/11 01:00:15;;;;;;;13.50;12.20;;;;;;;8.31;78.82;95279.84;109653;1269;22268;31
2023/03/11 01:02:48;;;;;;;14.00;12.50;;;;;;;8.30;78.64;95283.03;109501;1272;23509;31
2023/03/11 01:05:29;;;;;;;15.40;13.90;;;;;;;8.31;77.74;95285.43;99805;1267;24220;31
2023/03/11 01:08:21;;;;;;;7.90;6.90;;;;;;;8.32;76.34;95289.45;109827;1268;22649;31
2023/03/11 01:11:07;;;;;;;8.30;7.00;;;;;;;8.34;76.44;95283.20;109613;1271;22286;31
2023/03/11 01:13:42;;;;;;;8.10;6.60;;;;;;;8.36;75.17;95278.58;109840;1266;22362;31
2023/03/11 01:16:15;;;;;;;7.70;6.40;;;;;;;8.34;74.85;95279.14;109850;1270;22843;31
2023/03/11 01:18:51;;;;;;;8.50;6.80;;;;;;;8.28;75.03;95277.23;98523;1271;22529;31
2023/03/11 01:21:24;;;;;;;8.80;6.00;;;;;;;8.26;74.08;95275.64;94554;1268;22622;-81
2023/03/11 01:24:17;;;;;;;;;;;;;;;8.21;73.88;95278.38;109763;1269;22475;31
2023/03/11 01:26:50;;;;;;;7.50;5.70;;;;;;;8.15;73.25;95268.98;109855;1266;23318;31
2023/03/11 01:29:23;;;;;;;7.90;5.60;;;;;;;8.14;73.41;95272.54;109839;1269;22392;31
2023/03/11 01:32:18;;;;;;;6.60;5.00;;;;;;;8.17;73.55;95275.73;109841;1267;24343;31
2023/03/11 01:38:29;;;;;;;6.00;5.30;;;;;;;8.14;72.35;95280.96;87827;1270;24207;31
2023/03/11 01:41:03;;;;;;;7.30;6.00;;;;;;;8.11;72.17;95277.08;109704;1272;24551;31
2023/03/11 01:43:55;;;;;;;7.00;5.90;;;;;;;8.08;72.10;95275.06;109587;1271;22257;31
2023/03/11 01:56:44;;;;;;;5.20;4.30;;;;;;;8.06;72.79;95270.90;87558;1274;22783;31
2023/03/11 01:59:53;;;;;;;5.00;4.20;;;;;;;8.02;72.66;95272.30;109539;1274;23069;31
2023/03/11 02:05:39;;;;;;;5.10;4.20;;;;;;;7.93;74.14;95279.48;109568;1261;23334;31
2023/03/11 02:08:14;;;;;;;5.70;4.70;;;;;;;7.90;74.17;95280.30;109505;1276;22351;31
2023/03/11 02:10:49;;;;;;;6.10;4.70;;;;;;;7.78;74.20;95284.05;109540;1273;23079;31
2023/03/11 02:13:23;;;;;;;7.10;5.60;;;;;;;7.70;74.15;95286.25;109524;1270;22435;31
2023/03/11 02:15:59;;;;;;;6.60;4.90;;;;;;;7.65;75.16;95294.66;109508;1273;22262;31
2023/03/11 02:18:48;;;;;;;5.00;4.30;;;;;;;7.59;75.45;95302.33;109699;1273;22827;31
2023/03/11 02:21:31;;;;;;;5.30;4.80;;;;;;;7.46;75.03;95300.45;109630;1270;22339;31
2023/03/11 02:24:34;;;;;;;5.80;4.80;;;;;;;7.36;75.16;95303.84;109427;1276;23221;31
2023/03/11 02:27:11;;;;;;;4.70;3.90;;;;;;;7.24;75.36;95304.84;109615;1267;23400;31
2023/03/11 02:29:50;;;;;;;4.70;4.10;;;;;;;7.20;75.81;95308.55;95555;1270;22402;-80
2023/03/11 02:32:29;;;;;;;6.20;4.90;;;;;;;7.11;75.25;95300.77;109573;1274;22738;31
2023/03/11 02:35:22;;;;;;;6.50;4.10;;;;;;;7.07;74.77;95297.92;109550;1273;23883;31
2023/03/11 02:41:28;;;;;;;6.40;4.50;;;;;;;6.96;74.86;95300.13;109703;1271;22332;31
2023/03/11 02:44:02;;;;;;;5.30;4.80;;;;;;;6.95;74.68;95303.55;109643;1273;22390;31
2023/03/11 02:46:40;;;;;;;5.50;4.40;;;;;;;6.93;74.28;95301.02;109473;1274;22359;31
2023/03/11 02:49:09;;;;;;;9.10;8.20;;;;;;;6.90;73.64;95301.17;109760;1292;22201;-86
2023/03/11 02:51:38;;;;;;;9.30;8.10;;;;;;;6.85;73.73;95298.88;109717;1291;22131;-91
2023/03/11 02:54:06;;;;;;;7.60;6.10;;;;;;;6.81;73.68;95315.53;109719;1289;22826;-91
2023/03/11 02:56:35;;;;;;;5.50;3.80;;;;;;;6.74;74.77;95305.30;109652;1291;23007;-91
2023/03/11 02:59:03;;;;;;;7.40;5.80;;;;;;;6.68;75.26;95302.21;109820;1291;22142;-91
2023/03/11 03:01:31;;;;;;;5.00;4.10;;;;;;;6.58;75.28;95303.36;109687;1273;22242;-84
2023/03/11 03:03:59;;;;;;;4.40;3.50;;;;;;;6.51;75.43;95305.67;109551;1270;22760;-86
2023/03/11 03:06:31;;;;;;;4.30;3.70;;;;;;;6.47;75.28;95292.04;109537;1270;22685;-92
2023/03/11 03:08:59;;;;;;;4.50;4.10;;;;;;;6.43;76.11;95293.59;109747;1292;22234;-88
2023/03/11 03:11:27;;;;;;;5.60;4.70;;;;;;;6.43;75.89;95288.16;109678;1292;22247;-92
2023/03/11 03:13:56;;;;;;;5.50;4.30;;;;;;;6.37;75.60;95295.92;109422;1292;22220;-91
2023/03/11 03:16:30;;;;;;;5.20;4.10;;;;;;;6.33;75.33;95295.82;109664;1269;22083;31
2023/03/11 03:19:03;;;;;;;8.00;4.30;;;;;;;6.27;75.43;95288.60;102999;1271;22538;-80
2023/03/11 03:21:31;;;;;;;5.30;3.50;;;;;;;6.27;76.14;95290.64;109760;1292;22220;-87
2023/03/11 03:24:00;;;;;;;6.10;5.50;;;;;;;6.27;75.66;95288.35;109751;1292;22223;-89
2023/03/11 03:26:27;;;;;;;4.80;3.70;;;;;;;6.23;75.27;95288.15;109688;1292;22146;-88
2023/03/11 03:28:56;;;;;;;7.10;6.30;;;;;;;6.20;74.99;95289.28;109733;1292;22263;-88
2023/03/11 03:31:24;;;;;;;4.50;3.90;;;;;;;6.13;75.13;95283.05;109780;1292;22225;-88
2023/03/11 03:33:52;;;;;;;7.50;6.30;;;;;;;6.11;75.63;95286.41;109725;1270;22181;-90
2023/03/11 03:36:20;;;;;;;5.90;3.80;;;;;;;6.10;75.88;95290.80;109678;1291;21993;-84
2023/03/11 03:39:26;;;;;;;6.30;5.10;;;;;;;6.09;75.25;95289.80;109626;1270;23908;31
2023/03/11 03:41:57;;;;;;;5.70;4.80;;;;;;;6.03;74.98;95289.81;109265;1273;22207;-89
2023/03/11 03:44:26;;;;;;;6.30;3.50;;;;;;;5.96;75.08;95291.65;109660;1273;22218;-86
2023/03/11 03:46:54;;;;;;;5.60;4.60;;;;;;;5.96;75.69;95291.43;109592;1292;22383;-90
2023/03/11 03:49:22;;;;;;;6.90;4.20;;;;;;;5.96;75.94;95288.30;109626;1292;22167;-93
2023/03/11 03:51:51;;;;;;;6.20;3.80;;;;;;;5.95;75.59;95299.70;109492;1280;22096;-89
2023/03/11 03:54:32;;;;;;;5.00;4.50;;;;;;;5.92;75.30;95292.03;109786;1269;22229;31
2023/03/11 03:57:05;;;;;;;6.30;3.70;;;;;;;5.87;75.25;95302.19;102090;1270;22959;-81
2023/03/11 03:59:36;;;;;;;5.20;3.50;;;;;;;5.86;75.31;95298.18;109701;1273;22484;-82
2023/03/11 04:02:04;;;;;;;5.80;4.10;;;;;;;5.87;75.20;95298.20;109526;1270;24798;-89
2023/03/11 04:04:35;;;;;;;8.30;7.50;;;;;;;5.84;74.80;95288.34;109696;1271;22450;-90
2023/03/11 04:07:09;;;;;;;6.30;5.10;;;;;;;5.83;74.46;95292.27;109739;1276;22231;31
2023/03/11 04:09:39;;;;;;;5.90;4.00;;;;;;;5.78;74.24;95299.96;109575;1270;22547;-86
2023/03/11 04:12:14;;;;;;;5.20;4.00;;;;;;;5.72;73.92;95291.77;109588;1269;22811;31
2023/03/11 04:14:43;;;;;;;4.90;4.20;;;;;;;5.67;74.92;95293.83;109666;1273;22295;-92
2023/03/11 04:17:12;;;;;;;5.20;3.60;;;;;;;5.61;75.24;95299.95;109571;1292;23078;-91
2023/03/11 04:19:40;;;;;;;6.50;4.40;;;;;;;5.51;75.47;95298.23;109699;1292;22198;-89
2023/03/11 04:22:10;;;;;;;4.60;3.90;;;;;;;5.45;75.62;95297.54;109692;1292;21941;-93
2023/03/11 04:24:38;;;;;;;4.10;3.70;;;;;;;5.36;76.21;95298.38;109738;1292;22186;-89
2023/03/11 04:27:06;;;;;;;5.70;4.00;;;;;;;5.29;76.81;95291.15;109701;1292;22000;-88
2023/03/11 04:29:36;;;;;;;6.70;4.10;;;;;;;5.29;77.33;95289.73;109729;1292;22210;-89
2023/03/11 04:32:04;;;;;;;5.80;4.70;;;;;;;5.21;77.11;95288.80;109752;1292;22188;-90
2023/03/11 04:34:33;;;;;;;7.10;4.40;;;;;;;5.17;77.67;95283.85;109489;1292;22347;-88
2023/03/11 04:37:01;;;;;;;5.40;4.40;;;;;;;5.14;78.74;95283.14;109708;1292;22268;-87
2023/03/11 04:39:31;;;;;;;8.90;4.30;;;;;;;5.09;78.87;95278.73;109610;1292;22093;-88
2023/03/11 04:42:00;;;;;;;6.40;4.20;;;;;;;5.03;78.98;95275.73;109729;1292;22252;-87
2023/03/11 04:44:36;;;;;;;6.00;4.20;;;;;;;4.99;79.86;95283.84;109731;1274;22097;-81
2023/03/11 04:47:10;;;;;;;4.90;3.70;;;;;;;4.94;80.60;95282.12;109589;1270;22373;31
2023/03/11 04:49:38;;;;;;;6.20;5.30;;;;;;;4.88;81.59;95290.89;109783;1274;22274;-91
2023/03/11 04:52:06;;;;;;;4.10;3.40;;;;;;;4.81;82.14;95298.92;109783;1291;23179;-91
2023/03/11 04:54:41;;;;;;;5.00;3.70;;;;;;;4.68;82.94;95303.93;109655;1274;22973;31
2023/03/11 04:57:14;;;;;;;5.00;4.30;;;;;;;4.42;83.96;95304.25;109434;1270;22803;31
2023/03/11 04:59:48;;;;;;;6.40;6.30;;;;;;;4.28;84.07;95308.05;109664;1270;22012;-86
2023/03/11 05:02:17;;;;;;;5.80;4.30;;;;;;;4.22;85.59;95307.62;109610;1273;22215;-83
2023/03/11 05:05:25;;;;;;;4.60;3.90;;;;;;;4.09;85.85;95308.85;109586;1270;22851;-89
2023/03/11 05:07:58;;;;;;;6.40;4.40;;;;;;;3.94;86.10;95314.15;96365;1273;22351;-81
2023/03/11 05:10:46;;;;;;;5.10;4.40;;;;;;;3.87;86.83;95313.04;109442;1276;25101;31
2023/03/11 05:13:20;;;;;;;5.30;4.00;;;;;;;3.85;87.91;95309.48;103705;1273;23269;-85
2023/03/11 05:15:54;;;;;;;5.00;4.10;;;;;;;3.82;88.62;95312.02;109510;1273;22656;-81
2023/03/11 05:18:31;;;;;;;4.60;3.70;;;;;;;3.76;88.96;95310.16;109583;1270;22443;31
2023/03/11 05:20:59;;;;;;;5.20;3.50;;;;;;;3.73;89.58;95317.98;109578;1271;22254;-93
2023/03/11 05:23:28;;;;;;;8.30;6.20;;;;;;;3.70;89.47;95310.54;109793;1292;22274;-92
2023/03/11 05:26:04;;;;;;;8.70;6.80;;;;;;;3.71;89.92;95315.76;109779;1276;23045;31
2023/03/11 05:28:38;;;;;;;9.70;7.60;;;;;;;3.68;90.48;95309.36;94799;1273;24371;-84
2023/03/11 05:31:12;;;;;;;6.40;5.80;;;;;;;3.67;90.43;95319.23;109676;1270;22287;-87
2023/03/11 05:33:49;;;;;;;;;;;;;;;3.62;90.89;95319.73;109585;1274;22448;31
2023/03/11 05:36:24;;;;;;;5.50;4.40;;;;;;;3.58;90.47;95319.61;109626;1272;22301;31
2023/03/11 05:38:52;;;;;;;5.20;3.90;;;;;;;3.62;91.36;95316.13;109739;1273;22167;-88
2023/03/11 05:41:26;;;;;;;5.20;3.50;;;;;;;3.63;91.48;95328.21;109654;1273;23372;-92
2023/03/11 05:44:00;;;;;;;4.90;3.80;;;;;;;3.53;90.71;95339.81;109766;1270;22248;-85
2023/03/11 05:47:00;;;;;;;;;;;;;;;3.47;90.47;95340.45;109635;1276;23030;31
2023/03/11 05:49:28;;;;;;;4.90;4.00;;;;;;;3.40;90.53;95358.11;109811;1293;21974;-81
2023/03/11 05:52:04;;;;;;;5.30;4.30;;;;;;;3.39;90.51;95346.20;109744;1270;22342;31
2023/03/11 05:54:33;;;;;;;5.70;3.00;;;;;;;3.35;90.52;95351.83;109784;1292;22059;-84
2023/03/11 05:57:01;;;;;;;6.90;4.20;;;;;;;3.26;90.35;95353.69;109786;1292;22097;-82
2023/03/11 05:59:31;;;;;;;9.00;6.00;;;;;;;3.19;90.37;95352.02;109758;1292;22221;-88
2023/03/11 06:02:02;;;;;;;18.30;15.40;;;;;;;3.14;90.74;95349.94;109732;1270;22141;-88
2023/03/11 06:04:36;;;;;;;6.20;5.20;;;;;;;3.07;90.39;95350.59;109717;1269;22862;31
2023/03/11 06:07:12;;;;;;;3.80;3.10;;;;;;;3.03;90.13;95368.52;103213;1270;22264;-84
2023/03/11 06:09:40;;;;;;;;;;;;;;;2.88;90.32;95373.51;109845;1291;22331;-81
2023/03/11 06:12:11;;;;;;;8.00;7.20;;;;;;;2.76;90.85;95382.71;109698;1271;22598;-88
2023/03/11 06:15:11;;;;;;;4.10;3.70;;;;;;;2.64;91.38;95401.77;104464;1270;22192;-86
2023/03/11 06:17:39;;;;;;;4.20;3.80;;;;;;;2.51;91.52;95394.95;108469;1273;22208;-90
2023/03/11 06:20:08;;;;;;;4.00;3.60;;;;;;;2.44;91.93;95405.23;109430;1292;22110;-91
2023/03/11 06:22:37;;;;;;;3.60;3.20;;;;;;;2.37;92.59;95421.86;109454;1292;22238;-88
2023/03/11 06:25:08;;;;;;;4.30;3.90;;;;;;;2.34;93.21;95428.48;109504;1292;23020;-85
2023/03/11 06:27:46;;;;;;;4.20;3.70;;;;;;;2.12;93.09;95434.88;109594;1270;22487;-91
2023/03/11 06:30:15;;;;;;;4.40;3.90;;;;;;;2.01;93.29;95449.23;109667;1291;22186;-90
2023/03/11 06:32:51;;;;;;;3.50;3.20;;;;;;;1.87;93.58;95456.48;109661;1291;23033;-91
2023/03/11 06:35:20;;;;;;;4.20;3.80;;;;;;;1.76;93.52;95460.57;109417;1270;23295;-85
2023/03/11 06:37:47;;;;;;;4.20;3.80;;;;;;;1.67;93.59;95457.53;109674;1276;22098;-90
2023/03/11 06:40:21;;;;;;;4.60;4.10;;;;;;;1.61;93.85;95459.05;109611;1269;23458;-88
2023/03/11 06:42:49;;;;;;;6.40;5.50;;;;;;;1.55;93.98;95467.15;109587;1273;22840;-83
2023/03/11 06:45:23;;;;;;;5.00;4.50;;;;;;;1.49;94.15;95469.10;109591;1270;23534;31
2023/03/11 06:47:57;;;;;;;;;;;;;;;1.48;94.55;95469.06;105638;1271;22861;31
2023/03/11 06:50:34;;;;;;;6.80;6.00;;;;;;;1.39;94.97;95477.27;109563;1273;23431;31
2023/03/11 06:53:33;;;;;;;6.30;5.70;;;;;;;1.36;94.78;95478.41;109576;1275;22791;31
2023/03/11 06:56:12;;;;;;;5.90;5.20;;;;;;;1.38;95.40;95483.39;109583;1263;23032;31
2023/03/11 06:59:18;;;;;;;4.40;4.00;;;;;;;1.37;95.94;95494.31;109312;1270;21961;-88
2023/03/11 07:01:46;;;;;;;5.10;4.50;;;;;;;1.31;96.09;95499.35;109694;1274;22283;-84
2023/03/11 07:04:22;;;;;;;4.60;4.20;;;;;;;1.27;95.68;95510.02;109694;1274;24240;31
2023/03/11 07:07:40;;;;;;;4.90;4.40;;;;;;;1.21;95.97;95516.38;109374;1277;22392;31
2023/03/11 07:10:10;;;;;;;4.80;4.30;;;;;;;1.13;96.27;95526.73;109513;1267;22103;-82
2023/03/11 07:12:38;;;;;;;6.40;5.80;;;;;;;1.12;96.45;95535.56;109648;1274;22009;-92
2023/03/11 07:15:14;;;;;;;4.60;4.20;;;;;;;1.04;96.34;95542.79;109586;1270;23363;31
2023/03/11 07:17:43;;;;;;;4.50;4.10;;;;;;;1.01;96.56;95544.47;109632;1272;22085;-89
2023/03/11 07:20:11;;;;;;;6.00;4.60;;;;;;;1.01;96.62;95541.94;109390;1292;22176;-92
2023/03/11 07:22:39;;;;;;;5.80;5.20;;;;;;;0.98;96.76;95541.04;109527;1292;22236;-89
2023/03/11 07:25:07;;;;;;;5.50;5.00;;;;;;;1.04;96.86;95538.79;109291;1292;22284;-85
2023/03/11 07:27:36;;;;;;;6.30;4.80;;;;;;;1.00;96.45;95551.60;109220;1292;22950;-86
2023/03/11 07:30:04;;;;;;;5.50;5.00;;;;;;;0.99;96.62;95546.39;109320;1292;22217;-86
2023/03/11 07:32:32;;;;;;;5.50;5.00;;;;;;;1.04;96.85;95537.20;109313;1292;22381;-87
2023/03/11 07:35:00;;;;;;;5.60;4.90;;;;;;;1.09;96.87;95548.14;109317;1292;22229;-84
2023/03/11 07:37:28;;;;;;;5.90;5.30;;;;;;;1.09;96.66;95537.91;109385;1292;22122;-84
2023/03/11 07:39:56;;;;;;;5.60;4.50;;;;;;;1.10;96.74;95546.85;109271;1292;22439;-85
2023/03/11 07:42:24;;;;;;;7.40;6.70;;;;;;;1.12;97.01;95554.77;109309;1292;23567;-87
2023/03/11 07:44:53;;;;;;;13.50;11.80;;;;;;;1.08;96.67;95546.52;109354;1292;22174;-83
2023/03/11 07:47:23;;;;;;;10.40;9.40;;;;;;;1.05;96.55;95552.51;109261;1293;22934;-86
2023/03/11 07:49:54;;;;;;;9.80;7.90;;;;;;;1.01;96.53;95548.14;109266;1293;22240;-87
2023/03/11 07:52:24;;;;;;;8.80;7.90;;;;;;;1.01;96.76;95560.72;109286;1293;22218;-84
2023/03/11 07:54:55;;;;;;;7.30;6.60;;;;;;;0.99;96.80;95565.04;109291;1293;22225;-86
2023/03/11 07:57:26;;;;;;;6.70;5.90;;;;;;;0.98;96.87;95549.73;109270;1293;22475;-86
2023/03/11 07:59:54;;;;;;;7.00;6.30;;;;;;;0.98;96.93;95555.47;109149;1293;22298;-87
2023/03/11 08:02:22;;;;;;;6.90;6.10;;;;;;;0.95;96.79;95561.14;109275;1285;22206;-86
2023/03/11 08:04:50;;;;;;;6.50;5.90;;;;;;;0.94;97.00;95560.52;109307;1292;22226;-85
2023/03/11 08:07:19;;;;;;;8.00;6.10;;;;;;;0.98;97.14;95566.34;109288;1293;23461;-87
2023/03/11 08:09:48;;;;;;;7.60;5.80;;;;;;;0.97;97.54;95562.05;109266;1293;22111;-88
2023/03/11 08:12:16;;;;;;;7.50;5.80;;;;;;;0.99;97.56;95572.96;109275;1294;22283;-89
2023/03/11 08:14:44;;;;;;;6.90;6.20;;;;;;;0.96;97.62;95569.23;109261;1293;22245;-85
2023/03/11 08:17:12;;;;;;;7.40;5.60;;;;;;;0.94;97.46;95575.84;109278;1293;22236;-88
2023/03/11 08:19:40;;;;;;;7.00;6.10;;;;;;;0.85;97.54;95577.53;109258;1292;22973;-88
2023/03/11 08:22:08;;;;;;;6.10;5.60;;;;;;;0.84;97.78;95573.11;109255;1292;22152;-83
2023/03/11 08:24:36;;;;;;;8.10;7.30;;;;;;;0.83;97.75;95572.49;109289;1293;22355;-85
2023/03/11 08:27:04;;;;;;;11.80;10.40;;;;;;;0.77;97.80;95568.27;109609;1293;22219;-82
2023/03/11 08:29:32;;;;;;;23.30;20.70;;;;;;;0.80;98.12;95576.63;109774;1293;22329;-83
2023/03/11 08:32:02;;;;;;;32.70;29.00;;;;;;;0.80;98.18;95584.05;109535;1293;23073;-86
2023/03/11 08:34:31;;;;;;;15.40;13.90;;;;;;;0.82;98.30;95577.92;109286;1293;22278;-85
2023/03/11 08:37:00;;;;;;;12.60;11.50;;;;;;;0.83;98.38;95583.89;109299;1293;22237;-86
2023/03/11 08:39:28;;;;;;;6.80;6.10;;;;;;;0.80;98.40;95586.48;109282;1292;22232;-83
2023/03/11 08:41:56;;;;;;;7.90;7.00;;;;;;;0.82;98.63;95587.56;109324;1293;22273;-83
2023/03/11 08:44:24;;;;;;;7.50;6.80;;;;;;;0.83;98.62;95591.95;109283;1292;22285;-83
2023/03/11 08:46:52;;;;;;;7.00;6.30;;;;;;;0.82;98.74;95597.36;109300;1293;22290;-84
2023/03/11 08:49:20;;;;;;;11.50;9.90;;;;;;;0.81;98.48;95607.64;109345;1293;22873;-84
2023/03/11 08:51:52;;;;;;;11.40;10.30;;;;;;;0.83;98.41;95605.20;109421;1292;22234;-87
2023/03/11 08:54:21;;;;;;;10.60;9.60;;;;;;;0.88;98.67;95605.27;109327;1293;22239;-84
2023/03/11 08:56:49;;;;;;;8.00;7.30;;;;;;;0.90;98.78;95614.24;109320;1293;22274;-87
2023/03/11 08:59:19;;;;;;;10.30;9.30;;;;;;;0.85;98.36;95607.13;109293;1293;22202;-85
2023/03/11 09:01:47;;;;;;;8.10;7.30;;;;;;;0.80;98.42;95611.30;109304;1292;22137;-86
2023/03/11 09:04:15;;;;;;;10.90;8.60;;;;;;;0.83;98.56;95618.56;109304;1293;22225;-85
2023/03/11 09:06:44;;;;;;;12.60;11.40;;;;;;;0.88;98.87;95629.56;109298;1292;22212;-84
2023/03/11 09:09:12;;;;;;;9.30;8.30;;;;;;;0.84;98.51;95629.52;109320;1293;22281;-87
2023/03/11 09:11:40;;;;;;;8.80;7.90;;;;;;;0.84;98.57;95631.11;109368;1293;22891;-86
2023/03/11 09:14:08;;;;;;;15.20;13.60;;;;;;;0.86;98.74;95639.40;109338;1283;22208;-83
2023/03/11 09:16:36;;;;;;;9.60;8.70;;;;;;;0.87;98.70;95655.03;109337;1292;22306;-84
2023/03/11 09:19:06;;;;;;;11.90;10.80;;;;;;;0.88;98.77;95647.13;109411;1293;22215;-82
2023/03/11 09:21:35;;;;;;;12.10;10.90;;;;;;;0.86;98.68;95655.69;109323;1293;22123;-84
2023/03/11 09:24:04;;;;;;;8.80;7.60;;;;;;;0.87;98.86;95667.70;109340;1293;22188;-83
2023/03/11 09:26:32;;;;;;;10.60;9.50;;;;;;;0.81;98.81;95668.59;109286;1292;22221;-85
2023/03/11 09:29:00;;;;;;;11.10;9.80;;;;;;;0.76;98.66;95680.19;109317;1292;22227;-83
2023/03/11 09:31:29;;;;;;;11.20;10.10;;;;;;;0.74;98.77;95675.70;109306;1290;22217;-84
2023/03/11 09:33:57;;;;;;;10.80;9.70;;;;;;;0.72;98.57;95671.39;109326;1292;22254;-82
2023/03/11 09:36:25;;;;;;;14.30;12.80;;;;;;;0.70;98.67;95679.48;109160;1292;22236;-82
2023/03/11 09:38:53;;;;;;;15.40;13.90;;;;;;;0.65;98.48;95689.22;109327;1292;22317;-80
2023/03/11 09:41:37;;;;;;;9.00;8.10;;;;;;;0.56;98.30;95687.13;109305;1292;23099;-82
2023/03/11 09:44:41;;;;;;;7.70;6.90;;;;;;;0.43;98.41;95694.21;109295;1292;22177;-81
2023/03/11 09:47:24;;;;;;;7.90;7.10;;;;;;;0.36;98.68;95694.22;109310;1292;22237;-83
2023/03/11 09:50:13;;;;;;;8.20;7.40;;;;;;;0.34;99.24;95691.64;109284;1293;23100;-83
2023/03/11 09:52:43;;;;;;;10.40;9.30;;;;;;;0.33;99.45;95692.87;109337;1292;22199;-84
2023/03/11 09:55:32;;;;;;;11.10;10.10;;;;;;;0.38;99.65;95693.59;109331;1293;22986;-84
2023/03/11 09:58:08;;;;;;;10.00;9.10;;;;;;;0.37;99.73;95699.54;109346;1292;22145;-84
2023/03/11 10:00:36;;;;;;;9.50;8.70;;;;;;;0.30;99.82;95712.13;109310;1293;22200;-82
2023/03/11 10:03:14;;;;;;;8.60;7.70;;;;;;;0.27;99.99;95722.52;109328;1289;22897;-83
2023/03/11 10:05:44;;;;;;;9.10;7.80;;;;;;;0.21;100.00;95720.05;109330;1292;22301;-82
2023/03/11 10:08:22;;;;;;;8.30;7.40;;;;;;;0.16;100.00;95732.08;109316;1292;22137;-82
2023/03/11 10:11:11;;;;;;;8.90;8.10;;;;;;;0.12;100.00;95726.58;109338;1292;22347;-83
2023/03/11 10:14:23;;;;;;;12.20;11.20;;;;;;;0.05;100.00;95727.63;109353;1292;22244;-83
2023/03/11 10:16:56;;;;;;;14.60;13.30;;;;;;;0.01;100.00;95734.19;108870;1297;22342;-83
2023/03/11 10:19:50;;;;;;;11.50;10.50;;;;;;;-0.05;100.00;95739.19;108844;1297;22309;-81
2023/03/11 10:22:26;;;;;;;12.60;11.40;;;;;;;-0.11;100.00;95747.67;108871;1297;23184;-81
2023/03/11 10:25:04;;;;;;;12.40;11.30;;;;;;;-0.16;100.00;95744.65;108749;1297;166135;-84
2023/03/11 10:27:47;;;;;;;10.60;9.60;;;;;;;-0.15;100.00;95748.94;108891;1297;23035;-84
2023/03/11 10:30:44;;;;;;;11.80;10.70;;;;;;;-0.17;100.00;95746.38;108898;1297;22255;-82
2023/03/11 10:33:24;;;;;;;13.40;12.10;;;;;;;-0.22;100.00;95760.30;108888;1295;22296;-85
2023/03/11 10:35:55;;;;;;;12.50;11.30;;;;;;;-0.23;100.00;95764.43;108916;1297;22263;-83
2023/03/11 10:38:34;;;;;;;13.30;12.00;;;;;;;-0.22;100.00;95767.33;108890;1297;22950;-85
2023/03/11 10:41:09;;;;;;;13.10;11.70;;;;;;;-0.23;100.00;95772.42;108901;1297;22342;-84
2023/03/11 10:43:43;;;;;;;12.90;11.70;;;;;;;-0.24;100.00;95775.88;108893;1297;22234;-81
2023/03/11 10:46:20;;;;;;;16.80;15.30;;;;;;;-0.19;100.00;95785.14;108879;1297;22221;-82
2023/03/11 10:48:48;;;;;;;18.40;16.50;;;;;;;-0.21;100.00;95780.70;108933;1297;22198;-84
2023/03/11 10:51:21;;;;;;;14.50;13.00;;;;;;;-0.21;100.00;95787.60;109146;1293;22134;-83
2023/03/11 10:53:52;;;;;;;13.40;12.10;;;;;;;-0.21;100.00;95799.29;109341;1293;22831;-82
2023/03/11 10:56:35;;;;;;;13.60;12.20;;;;;;;-0.20;100.00;95799.81;109299;1293;23081;-81
2023/03/11 10:59:05;;;;;;;18.00;16.20;;;;;;;-0.23;100.00;95806.25;109302;1292;22227;-83
2023/03/11 11:01:33;;;;;;;22.00;19.70;;;;;;;-0.25;100.00;95803.14;109295;1292;22811;-82
2023/03/11 11:04:01;;;;;;;29.60;27.00;;;;;;;-0.24;100.00;95812.13;109289;1292;22196;-84
2023/03/11 11:06:36;;;;;;;34.80;31.90;;;;;;;-0.25;100.00;95810.70;109301;1293;22399;-83
2023/03/11 11:09:19;;;;;;;26.70;24.40;;;;;;;-0.26;100.00;95815.27;109307;1293;22344;-82
2023/03/11 11:12:11;;;;;;;15.20;13.80;;;;;;;-0.25;100.00;95804.10;109274;1292;22842;-83
2023/03/11 11:14:50;;;;;;;13.10;11.90;;;;;;;-0.26;100.00;95822.10;109320;1293;22215;-82
2023/03/11 11:17:24;;;;;;;12.30;11.10;;;;;;;-0.25;100.00;95824.90;109284;1292;22138;-82
2023/03/11 11:19:55;;;;;;;16.70;15.00;;;;;;;-0.23;100.00;95829.86;109318;1292;22185;-81
2023/03/11 11:22:24;;;;;;;13.80;11.80;;;;;;;-0.20;100.00;95841.15;109302;1281;22930;-82
2023/03/11 11:24:54;;;;;;;15.60;14.00;;;;;;;-0.24;100.00;95837.22;109290;1285;22296;-82
2023/03/11 11:27:25;;;;;;;14.20;12.60;;;;;;;-0.31;100.00;95844.11;109301;1292;22412;-83
2023/03/11 11:30:08;;;;;;;14.80;13.30;;;;;;;-0.25;100.00;95855.32;109252;1293;22191;-82
2023/03/11 11:32:37;;;;;;;16.00;14.50;;;;;;;-0.27;100.00;95850.80;109296;1292;22812;-81
2023/03/11 11:35:06;;;;;;;13.70;12.20;;;;;;;-0.26;100.00;95863.81;109285;1292;22230;-81
2023/03/11 11:37:38;;;;;;;13.30;12.00;;;;;;;-0.26;100.00;95870.27;109280;1292;22274;-85
2023/03/11 11:40:28;;;;;;;17.10;15.60;;;;;;;-0.28;100.00;95885.80;109301;1292;22269;-82
2023/03/11 11:43:10;;;;;;;11.80;10.70;;;;;;;-0.28;100.00;95882.31;109295;1293;22241;-80
2023/03/11 11:45:41;;;;;;;10.80;9.70;;;;;;;-0.29;100.00;95893.64;109281;1292;22121;-82
2023/03/11 11:48:21;;;;;;;9.60;8.70;;;;;;;-0.30;100.00;95893.34;109322;1292;22196;-83
2023/03/11 11:51:14;;;;;;;8.60;7.70;;;;;;;-0.27;100.00;95907.11;109283;1292;22372;-84
2023/03/11 11:53:56;;;;;;;9.90;8.90;;;;;;;-0.28;100.00;95921.10;109623;1292;21888;-83
2023/03/11 11:56:25;;;;;;;11.40;9.10;;;;;;;-0.36;100.00;95920.70;109610;1293;22152;-81
2023/03/11 11:58:54;;;;;;;9.20;8.10;;;;;;;-0.37;100.00;95932.83;109342;1292;23014;-81
2023/03/11 12:01:35;;;;;;;9.50;8.10;;;;;;;-0.40;100.00;95951.84;109324;1292;22911;-81
2023/03/11 12:04:30;;;;;;;7.50;6.80;;;;;;;-0.45;100.00;95951.40;109291;1292;22208;-83
2023/03/11 12:07:07;;;;;;;9.60;8.70;;;;;;;-0.48;100.00;95963.55;109281;1292;22128;-82
2023/03/11 12:09:42;;;;;;;8.80;7.90;;;;;;;-0.63;100.00;95979.98;109303;1292;22197;-82
2023/03/11 12:12:31;;;;;;;8.70;7.60;;;;;;;-0.69;100.00;95990.54;109209;1285;22212;-83
2023/03/11 12:15:19;;;;;;;7.50;6.70;;;;;;;-0.69;100.00;95992.13;109388;1292;22946;-82
2023/03/11 12:17:50;;;;;;;8.90;8.00;;;;;;;-0.65;100.00;95993.91;109178;1286;22264;-80
2023/03/11 12:20:55;;;;;;;8.20;7.40;;;;;;;-0.64;100.00;96003.53;109157;1286;22273;-81
2023/03/11 12:23:41;;;;;;;8.70;7.80;;;;;;;-0.62;100.00;96017.06;108905;1297;22996;-81
2023/03/11 12:26:18;;;;;;;9.10;8.20;;;;;;;-0.62;100.00;96019.91;108870;1290;22244;-80